Hanjin Namu — VRNA8 — position and weather

sailwx.info

Track history (hours):
 
Tides and Currents Weather Stations Pressure Air Temp Water Temp Dewpoint Dewpoint Depression Visibility Wind Speed Wind Dir Waves Ship Positions

Hanjin Namu

Last reported at 2017-Nov-24 05:40 UTC. Time now 2017-Nov-24 16:42 UTC.
Position N 22°28' E 119°55'.

Length 337 m; draft 11.2 m.

Type: Ship (hazmat cat A). MMSI: 477441400.

Date/timePositionNaut miles runAvg speedWind from/ knotsBaromVisibWave heightAir tempDewpointWater temp
2017-Nov-24 05:40N 22°28' E 119°55'319.6
2017-Nov-24 05:30N 22°29' E 119°59'1019.4
2017-Nov-24 05:00N 22°32' E 120°09'816.3
2017-Nov-24 04:31N 22°33' E 120°18'2 3.7
2017-Nov-24 04:01N 22°33' E 120°20'0 0.0
2017-Nov-24 03:12N 22°33' E 120°20'0 0.0
2017-Nov-24 02:51N 22°33' E 120°20'0 0.0
2017-Nov-24 02:29N 22°33' E 120°20'0 0.0
2017-Nov-24 02:00N 22°33' E 120°20'0 0.0
2017-Nov-24 01:30N 22°33' E 120°20'0 0.0
2017-Nov-24 01:00N 22°33' E 120°20'0 0.0
2017-Nov-24 00:30N 22°33' E 120°20'0 0.0
2017-Nov-23 23:59N 22°33' E 120°20'0 0.0
2017-Nov-23 23:29N 22°33' E 120°20'0 0.0
2017-Nov-23 23:00N 22°33' E 120°20'0 0.0
2017-Nov-23 22:29N 22°33' E 120°20'0 0.0
2017-Nov-23 21:11N 22°33' E 120°20'0 0.0
2017-Nov-23 20:45N 22°33' E 120°20'0 0.0
2017-Nov-23 20:30N 22°33' E 120°20'0 0.0
2017-Nov-23 19:51N 22°33' E 120°20'0 0.0
2017-Nov-23 18:29N 22°33' E 120°20'0 0.0
2017-Nov-23 17:53N 22°33' E 120°20'0 0.0
2017-Nov-23 17:29N 22°33' E 120°20'0 0.0
2017-Nov-23 16:59N 22°33' E 120°20'0 0.0
2017-Nov-23 16:27N 22°33' E 120°20'0 0.0
2017-Nov-23 15:32N 22°33' E 120°20'0 0.1
2017-Nov-23 15:29N 22°33' E 120°20'0 0.0
2017-Nov-23 14:57N 22°33' E 120°20'1 1.9
2017-Nov-23 14:30N 22°33' E 120°19'3 5.9
2017-Nov-23 14:00N 22°32' E 120°16'5 9.2
2017-Nov-23 13:31N 22°31' E 120°11'5 9.5
2017-Nov-23 13:01N 22°30' E 120°06'816.8
2017-Nov-23 12:30N 22°27' E 119°57'917.5
2017-Nov-23 11:59N 22°25' E 119°48'  
2017-Nov-20 00:29N 01°16' E 103°50'0 0.0
2017-Nov-19 23:58N 01°16' E 103°50'0 0.0
2017-Nov-19 23:26N 01°16' E 103°50'0 0.0
2017-Nov-19 22:58N 01°16' E 103°50'0 0.0
2017-Nov-19 22:29N 01°16' E 103°50'0 0.0
2017-Nov-19 21:58N 01°16' E 103°50'0 0.0
2017-Nov-19 21:29N 01°16' E 103°50'0 0.0
2017-Nov-19 20:58N 01°16' E 103°50'0 0.0
2017-Nov-19 20:28N 01°16' E 103°50'0 0.0
2017-Nov-19 19:58N 01°16' E 103°50'0 0.0
2017-Nov-19 19:28N 01°16' E 103°50'0 0.0
2017-Nov-19 18:59N 01°16' E 103°50'0 0.0
2017-Nov-19 18:28N 01°16' E 103°50'0 0.0
2017-Nov-19 17:58N 01°16' E 103°50'0 0.0
2017-Nov-19 17:29N 01°16' E 103°50'0 0.0
2017-Nov-19 16:58N 01°16' E 103°50'0 0.0
2017-Nov-19 16:28N 01°16' E 103°50'0 0.0
2017-Nov-19 15:59N 01°16' E 103°50'0 0.0
2017-Nov-19 15:28N 01°16' E 103°50'0 0.0
2017-Nov-19 14:58N 01°16' E 103°50'0 0.0
2017-Nov-19 14:29N 01°16' E 103°50'0 0.0
2017-Nov-19 13:58N 01°16' E 103°50'0 0.0
2017-Nov-19 13:28N 01°16' E 103°50'0 0.0
2017-Nov-19 12:59N 01°16' E 103°50'0 0.0
2017-Nov-19 12:28N 01°16' E 103°50'0 0.0
2017-Nov-19 11:28N 01°16' E 103°50'0 0.0
2017-Nov-19 10:58N 01°16' E 103°50'0 0.7
2017-Nov-19 10:30N 01°16' E 103°50'4 7.1
2017-Nov-19 10:01N 01°14' E 103°53'4 8.0
2017-Nov-19 09:30N 01°11' E 103°50'611.2
2017-Nov-19 09:00N 01°08' E 103°46'611.5
2017-Nov-19 08:30N 01°04' E 103°42'510.4
2017-Nov-19 08:01N 01°04' E 103°36'612.9
2017-Nov-19 07:30N 01°07' E 103°31'713.0
2017-Nov-19 07:00N 01°11' E 103°25'612.9
2017-Nov-19 06:30N 01°15' E 103°20'  
Track history (hours):
 
Tides and Currents Weather Stations Pressure Air Temp Water Temp Dewpoint Dewpoint Depression Visibility Wind Speed Wind Dir Waves Ship Positions

Hanjin Namu

Last reported at 2017-Nov-24 05:40 UTC. Time now 2017-Nov-24 16:42 UTC.
Position N 22°28' E 119°55'.

Length 337 m; draft 11.2 m.

Type: Ship (hazmat cat A). MMSI: 477441400.

Date/timePositionNaut miles runAvg speedWind from/ knotsBaromVisibWave heightAir tempDewpointWater temp
2017-Nov-24 05:40N 22°28' E 119°55'319.6
2017-Nov-24 05:30N 22°29' E 119°59'1019.4
2017-Nov-24 05:00N 22°32' E 120°09'816.3
2017-Nov-24 04:31N 22°33' E 120°18'2 3.7
2017-Nov-24 04:01N 22°33' E 120°20'0 0.0
2017-Nov-24 03:12N 22°33' E 120°20'0 0.0
2017-Nov-24 02:51N 22°33' E 120°20'0 0.0
2017-Nov-24 02:29N 22°33' E 120°20'0 0.0
2017-Nov-24 02:00N 22°33' E 120°20'0 0.0
2017-Nov-24 01:30N 22°33' E 120°20'0 0.0
2017-Nov-24 01:00N 22°33' E 120°20'0 0.0
2017-Nov-24 00:30N 22°33' E 120°20'0 0.0
2017-Nov-23 23:59N 22°33' E 120°20'0 0.0
2017-Nov-23 23:29N 22°33' E 120°20'0 0.0
2017-Nov-23 23:00N 22°33' E 120°20'0 0.0
2017-Nov-23 22:29N 22°33' E 120°20'0 0.0
2017-Nov-23 21:11N 22°33' E 120°20'0 0.0
2017-Nov-23 20:45N 22°33' E 120°20'0 0.0
2017-Nov-23 20:30N 22°33' E 120°20'0 0.0
2017-Nov-23 19:51N 22°33' E 120°20'0 0.0
2017-Nov-23 18:29N 22°33' E 120°20'0 0.0
2017-Nov-23 17:53N 22°33' E 120°20'0 0.0
2017-Nov-23 17:29N 22°33' E 120°20'0 0.0
2017-Nov-23 16:59N 22°33' E 120°20'0 0.0
2017-Nov-23 16:27N 22°33' E 120°20'0 0.0
2017-Nov-23 15:32N 22°33' E 120°20'0 0.1
2017-Nov-23 15:29N 22°33' E 120°20'0 0.0
2017-Nov-23 14:57N 22°33' E 120°20'1 1.9
2017-Nov-23 14:30N 22°33' E 120°19'3 5.9
2017-Nov-23 14:00N 22°32' E 120°16'5 9.2
2017-Nov-23 13:31N 22°31' E 120°11'5 9.5
2017-Nov-23 13:01N 22°30' E 120°06'816.8
2017-Nov-23 12:30N 22°27' E 119°57'917.5
2017-Nov-23 11:59N 22°25' E 119°48'  
2017-Nov-20 00:29N 01°16' E 103°50'0 0.0
2017-Nov-19 23:58N 01°16' E 103°50'0 0.0
2017-Nov-19 23:26N 01°16' E 103°50'0 0.0
2017-Nov-19 22:58N 01°16' E 103°50'0 0.0
2017-Nov-19 22:29N 01°16' E 103°50'0 0.0
2017-Nov-19 21:58N 01°16' E 103°50'0 0.0
2017-Nov-19 21:29N 01°16' E 103°50'0 0.0
2017-Nov-19 20:58N 01°16' E 103°50'0 0.0
2017-Nov-19 20:28N 01°16' E 103°50'0 0.0
2017-Nov-19 19:58N 01°16' E 103°50'0 0.0
2017-Nov-19 19:28N 01°16' E 103°50'0 0.0
2017-Nov-19 18:59N 01°16' E 103°50'0 0.0
2017-Nov-19 18:28N 01°16' E 103°50'0 0.0
2017-Nov-19 17:58N 01°16' E 103°50'0 0.0
2017-Nov-19 17:29N 01°16' E 103°50'0 0.0
2017-Nov-19 16:58N 01°16' E 103°50'0 0.0
2017-Nov-19 16:28N 01°16' E 103°50'0 0.0
2017-Nov-19 15:59N 01°16' E 103°50'0 0.0
2017-Nov-19 15:28N 01°16' E 103°50'0 0.0
2017-Nov-19 14:58N 01°16' E 103°50'0 0.0
2017-Nov-19 14:29N 01°16' E 103°50'0 0.0
2017-Nov-19 13:58N 01°16' E 103°50'0 0.0
2017-Nov-19 13:28N 01°16' E 103°50'0 0.0
2017-Nov-19 12:59N 01°16' E 103°50'0 0.0
2017-Nov-19 12:28N 01°16' E 103°50'0 0.0
2017-Nov-19 11:28N 01°16' E 103°50'0 0.0
2017-Nov-19 10:58N 01°16' E 103°50'0 0.7
2017-Nov-19 10:30N 01°16' E 103°50'4 7.1
2017-Nov-19 10:01N 01°14' E 103°53'4 8.0
2017-Nov-19 09:30N 01°11' E 103°50'611.2
2017-Nov-19 09:00N 01°08' E 103°46'611.5
2017-Nov-19 08:30N 01°04' E 103°42'510.4
2017-Nov-19 08:01N 01°04' E 103°36'612.9
2017-Nov-19 07:30N 01°07' E 103°31'713.0
2017-Nov-19 07:00N 01°11' E 103°25'612.9
2017-Nov-19 06:30N 01°15' E 103°20'  

Dump ship's entire track history